sensor_id;sensor_type;location;lat;lon;timestamp;pressure;altitude;pressure_sealevel;temperature;humidity
10712;BME280;5407;51.234;6.804;2023-07-13T00:00:18;100975.03;;;24.13;39.14
10712;BME280;5407;51.234;6.804;2023-07-13T00:02:44;100978.22;;;24.11;39.04
10712;BME280;5407;51.234;6.804;2023-07-13T00:05:11;100975.97;;;24.06;38.43
10712;BME280;5407;51.234;6.804;2023-07-13T00:07:38;100971.44;;;24.16;38.87
10712;BME280;5407;51.234;6.804;2023-07-13T00:10:08;100971.78;;;24.18;38.79
10712;BME280;5407;51.234;6.804;2023-07-13T00:12:38;100979.13;;;24.05;38.34
10712;BME280;5407;51.234;6.804;2023-07-13T00:15:09;100980.75;;;24.02;39.17
10712;BME280;5407;51.234;6.804;2023-07-13T00:17:38;100982.00;;;23.78;39.10
10712;BME280;5407;51.234;6.804;2023-07-13T00:20:07;100980.25;;;23.88;39.23
10712;BME280;5407;51.234;6.804;2023-07-13T00:22:34;100984.22;;;23.87;39.00
10712;BME280;5407;51.234;6.804;2023-07-13T00:25:01;100977.50;;;23.65;39.34
10712;BME280;5407;51.234;6.804;2023-07-13T00:27:29;100975.75;;;23.55;39.42
10712;BME280;5407;51.234;6.804;2023-07-13T00:29:57;100978.88;;;23.34;40.04
10712;BME280;5407;51.234;6.804;2023-07-13T00:32:25;100979.41;;;23.26;40.07
10712;BME280;5407;51.234;6.804;2023-07-13T00:34:52;100978.72;;;23.45;39.95
10712;BME280;5407;51.234;6.804;2023-07-13T00:37:18;100977.91;;;23.44;40.28
10712;BME280;5407;51.234;6.804;2023-07-13T00:39:46;100983.06;;;23.42;40.07
10712;BME280;5407;51.234;6.804;2023-07-13T00:42:13;100984.66;;;23.63;39.97
10712;BME280;5407;51.234;6.804;2023-07-13T00:44:41;100980.63;;;23.48;39.85
10712;BME280;5407;51.234;6.804;2023-07-13T00:58:29;100972.97;;;23.13;40.57
10712;BME280;5407;51.234;6.804;2023-07-13T01:00:58;100975.94;;;22.99;41.18
10712;BME280;5407;51.234;6.804;2023-07-13T01:03:25;100971.06;;;22.83;41.33
10712;BME280;5407;51.234;6.804;2023-07-13T01:05:53;100979.59;;;22.89;41.62
10712;BME280;5407;51.234;6.804;2023-07-13T01:08:20;100968.75;;;23.28;41.05
10712;BME280;5407;51.234;6.804;2023-07-13T01:10:51;100980.69;;;22.95;41.40
10712;BME280;5407;51.234;6.804;2023-07-13T01:13:19;100975.84;;;22.79;41.96
10712;BME280;5407;51.234;6.804;2023-07-13T01:15:47;100979.66;;;23.12;41.38
10712;BME280;5407;51.234;6.804;2023-07-13T01:18:20;100970.50;;;22.92;41.70
10712;BME280;5407;51.234;6.804;2023-07-13T01:20:52;100973.63;;;22.11;43.08
10712;BME280;5407;51.234;6.804;2023-07-13T01:23:19;100978.84;;;22.62;43.01
10712;BME280;5407;51.234;6.804;2023-07-13T01:25:48;100980.69;;;22.95;42.13
10712;BME280;5407;51.234;6.804;2023-07-13T01:28:15;100975.97;;;22.95;42.20
10712;BME280;5407;51.234;6.804;2023-07-13T01:30:43;100978.69;;;22.99;42.04
10712;BME280;5407;51.234;6.804;2023-07-13T01:33:11;100981.03;;;22.74;42.46
10712;BME280;5407;51.234;6.804;2023-07-13T01:35:38;100974.31;;;22.75;42.86
10712;BME280;5407;51.234;6.804;2023-07-13T01:38:07;100965.72;;;22.73;42.50
10712;BME280;5407;51.234;6.804;2023-07-13T01:40:34;100980.69;;;23.21;41.93
10712;BME280;5407;51.234;6.804;2023-07-13T01:43:01;100977.72;;;23.09;41.93
10712;BME280;5407;51.234;6.804;2023-07-13T01:45:28;100979.72;;;22.82;42.43
10712;BME280;5407;51.234;6.804;2023-07-13T01:47:55;100982.53;;;22.52;43.10
10712;BME280;5407;51.234;6.804;2023-07-13T01:50:23;100984.81;;;22.57;43.27
10712;BME280;5407;51.234;6.804;2023-07-13T01:52:51;100983.88;;;22.67;43.08
10712;BME280;5407;51.234;6.804;2023-07-13T01:55:20;100985.16;;;22.29;43.58
10712;BME280;5407;51.234;6.804;2023-07-13T01:57:46;100979.31;;;22.57;43.23
10712;BME280;5407;51.234;6.804;2023-07-13T02:00:14;100977.03;;;22.52;43.80
10712;BME280;5407;51.234;6.804;2023-07-13T02:02:41;100989.06;;;21.98;44.62
10712;BME280;5407;51.234;6.804;2023-07-13T02:05:09;100983.66;;;22.54;43.41
10712;BME280;5407;51.234;6.804;2023-07-13T02:07:37;100978.84;;;22.62;43.64
10712;BME280;5407;51.234;6.804;2023-07-13T02:10:04;100976.00;;;22.92;43.22
10712;BME280;5407;51.234;6.804;2023-07-13T02:12:33;100979.03;;;23.01;42.71
10712;BME280;5407;51.234;6.804;2023-07-13T02:15:01;100980.84;;;22.28;44.11
10712;BME280;5407;51.234;6.804;2023-07-13T02:17:28;100982.22;;;22.13;44.70
10712;BME280;5407;51.234;6.804;2023-07-13T02:19:55;100986.34;;;22.28;44.58
10712;BME280;5407;51.234;6.804;2023-07-13T02:22:22;100987.06;;;22.02;45.12
10712;BME280;5407;51.234;6.804;2023-07-13T02:24:49;100987.53;;;21.60;46.33
10712;BME280;5407;51.234;6.804;2023-07-13T02:27:17;100993.44;;;21.96;45.67
10712;BME280;5407;51.234;6.804;2023-07-13T02:29:46;100996.13;;;21.99;45.72
10712;BME280;5407;51.234;6.804;2023-07-13T02:32:13;100995.06;;;22.23;45.41
10712;BME280;5407;51.234;6.804;2023-07-13T02:34:41;100991.81;;;21.98;45.73
10712;BME280;5407;51.234;6.804;2023-07-13T02:37:08;100994.72;;;22.17;45.38
10712;BME280;5407;51.234;6.804;2023-07-13T02:39:35;100989.56;;;22.23;45.17
10712;BME280;5407;51.234;6.804;2023-07-13T02:42:03;100995.53;;;22.15;45.47
10712;BME280;5407;51.234;6.804;2023-07-13T02:44:30;100991.28;;;21.77;46.88
10712;BME280;5407;51.234;6.804;2023-07-13T02:46:58;100991.31;;;21.73;46.67
10712;BME280;5407;51.234;6.804;2023-07-13T02:49:25;100993.34;;;21.69;46.99
10712;BME280;5407;51.234;6.804;2023-07-13T02:51:52;100988.66;;;22.00;46.29
10712;BME280;5407;51.234;6.804;2023-07-13T02:54:19;100995.50;;;22.18;45.79
10712;BME280;5407;51.234;6.804;2023-07-13T02:56:46;101003.41;;;22.13;45.91
10712;BME280;5407;51.234;6.804;2023-07-13T02:59:13;101002.44;;;22.29;45.76
10712;BME280;5407;51.234;6.804;2023-07-13T03:01:40;101000.38;;;22.07;46.05
10712;BME280;5407;51.234;6.804;2023-07-13T03:04:08;101010.69;;;21.96;46.71
10712;BME280;5407;51.234;6.804;2023-07-13T03:06:35;101000.22;;;21.84;47.00
10712;BME280;5407;51.234;6.804;2023-07-13T03:09:03;100996.38;;;21.34;48.19
10712;BME280;5407;51.234;6.804;2023-07-13T03:11:32;101002.06;;;21.57;47.60
10712;BME280;5407;51.234;6.804;2023-07-13T03:14:15;100995.16;;;20.91;49.37
10712;BME280;5407;51.234;6.804;2023-07-13T03:16:42;101004.47;;;21.48;48.18
10712;BME280;5407;51.234;6.804;2023-07-13T03:19:10;101003.19;;;21.19;49.19
10712;BME280;5407;51.234;6.804;2023-07-13T03:21:38;101006.09;;;21.42;48.61
10712;BME280;5407;51.234;6.804;2023-07-13T03:24:05;101016.69;;;21.84;47.89
10712;BME280;5407;51.234;6.804;2023-07-13T03:26:32;101003.94;;;21.67;48.11
10712;BME280;5407;51.234;6.804;2023-07-13T03:28:59;101005.31;;;21.86;47.52
10712;BME280;5407;51.234;6.804;2023-07-13T03:31:28;101011.59;;;21.86;47.19
10712;BME280;5407;51.234;6.804;2023-07-13T03:33:56;101010.16;;;22.08;46.95
10712;BME280;5407;51.234;6.804;2023-07-13T03:36:27;101015.28;;;22.06;46.98
10712;BME280;5407;51.234;6.804;2023-07-13T03:38:59;101011.63;;;22.16;46.81
10712;BME280;5407;51.234;6.804;2023-07-13T03:41:50;101025.47;;;21.72;48.02
10712;BME280;5407;51.234;6.804;2023-07-13T03:44:17;101022.88;;;21.51;48.26
10712;BME280;5407;51.234;6.804;2023-07-13T03:46:47;101016.50;;;21.68;48.00
10712;BME280;5407;51.234;6.804;2023-07-13T03:49:14;101029.25;;;21.85;47.76
10712;BME280;5407;51.234;6.804;2023-07-13T03:51:42;101025.03;;;21.74;47.74
10712;BME280;5407;51.234;6.804;2023-07-13T03:54:09;101034.38;;;21.83;47.86
10712;BME280;5407;51.234;6.804;2023-07-13T03:56:36;101026.06;;;21.46;48.42
10712;BME280;5407;51.234;6.804;2023-07-13T03:59:06;101037.94;;;21.80;47.49
10712;BME280;5407;51.234;6.804;2023-07-13T04:01:33;101039.66;;;22.04;46.74
10712;BME280;5407;51.234;6.804;2023-07-13T04:04:00;101047.59;;;21.95;46.87
10712;BME280;5407;51.234;6.804;2023-07-13T04:06:28;101049.50;;;21.61;47.95
10712;BME280;5407;51.234;6.804;2023-07-13T04:08:58;101044.97;;;21.37;48.13
10712;BME280;5407;51.234;6.804;2023-07-13T04:11:27;101050.31;;;21.55;48.20
10712;BME280;5407;51.234;6.804;2023-07-13T04:13:55;101058.19;;;21.49;48.34
10712;BME280;5407;51.234;6.804;2023-07-13T04:16:22;101057.59;;;21.75;47.80
10712;BME280;5407;51.234;6.804;2023-07-13T04:18:49;101052.06;;;21.35;48.62
10712;BME280;5407;51.234;6.804;2023-07-13T04:21:16;101052.09;;;21.31;48.67
10712;BME280;5407;51.234;6.804;2023-07-13T04:23:43;101053.56;;;21.43;48.91
10712;BME280;5407;51.234;6.804;2023-07-13T04:26:11;101050.63;;;21.16;49.52
10712;BME280;5407;51.234;6.804;2023-07-13T04:28:38;101044.78;;;21.65;48.26
10712;BME280;5407;51.234;6.804;2023-07-13T04:31:05;101061.88;;;21.80;47.93
10712;BME280;5407;51.234;6.804;2023-07-13T04:33:32;101057.16;;;21.80;47.62
10712;BME280;5407;51.234;6.804;2023-07-13T04:35:59;101060.63;;;21.88;47.61
10712;BME280;5407;51.234;6.804;2023-07-13T04:38:29;101064.97;;;21.85;47.73
10712;BME280;5407;51.234;6.804;2023-07-13T04:40:58;101064.06;;;21.51;48.39
10712;BME280;5407;51.234;6.804;2023-07-13T04:43:27;101068.16;;;21.80;47.86
10712;BME280;5407;51.234;6.804;2023-07-13T04:45:54;101059.63;;;21.71;47.97
10712;BME280;5407;51.234;6.804;2023-07-13T04:48:22;101059.69;;;21.13;49.54
10712;BME280;5407;51.234;6.804;2023-07-13T04:50:54;101064.75;;;21.15;49.93
10712;BME280;5407;51.234;6.804;2023-07-13T04:53:21;101064.41;;;21.60;49.03
10712;BME280;5407;51.234;6.804;2023-07-13T04:55:48;101062.94;;;21.45;49.44
10712;BME280;5407;51.234;6.804;2023-07-13T04:58:15;101062.13;;;21.48;49.51
10712;BME280;5407;51.234;6.804;2023-07-13T05:00:43;101068.56;;;21.31;49.72
10712;BME280;5407;51.234;6.804;2023-07-13T05:03:10;101068.34;;;21.59;49.39
10712;BME280;5407;51.234;6.804;2023-07-13T05:05:37;101065.25;;;21.50;49.81
10712;BME280;5407;51.234;6.804;2023-07-13T05:08:04;101077.78;;;21.51;49.34
10712;BME280;5407;51.234;6.804;2023-07-13T05:10:30;101074.91;;;21.72;49.19
10712;BME280;5407;51.234;6.804;2023-07-13T05:12:57;101082.63;;;21.84;48.82
10712;BME280;5407;51.234;6.804;2023-07-13T05:15:24;101085.09;;;22.12;48.21
10712;BME280;5407;51.234;6.804;2023-07-13T05:17:53;101077.28;;;21.19;50.31
10712;BME280;5407;51.234;6.804;2023-07-13T05:20:20;101073.03;;;21.59;50.20
10712;BME280;5407;51.234;6.804;2023-07-13T05:22:47;101080.84;;;21.64;49.80
10712;BME280;5407;51.234;6.804;2023-07-13T05:25:14;101080.84;;;21.67;50.04
10712;BME280;5407;51.234;6.804;2023-07-13T05:27:41;101080.22;;;21.42;50.77
10712;BME280;5407;51.234;6.804;2023-07-13T05:30:08;101094.81;;;21.83;49.78
10712;BME280;5407;51.234;6.804;2023-07-13T05:32:37;101089.50;;;21.55;50.69
10712;BME280;5407;51.234;6.804;2023-07-13T05:35:06;101090.19;;;21.73;50.05
10712;BME280;5407;51.234;6.804;2023-07-13T05:37:33;101102.31;;;22.16;49.07
10712;BME280;5407;51.234;6.804;2023-07-13T05:40:00;101100.50;;;22.03;49.46
10712;BME280;5407;51.234;6.804;2023-07-13T05:42:27;101100.19;;;21.94;49.92
10712;BME280;5407;51.234;6.804;2023-07-13T05:44:56;101117.44;;;21.94;50.03
10712;BME280;5407;51.234;6.804;2023-07-13T05:47:23;101116.97;;;21.55;51.04
10712;BME280;5407;51.234;6.804;2023-07-13T05:49:50;101110.72;;;21.51;51.50
10712;BME280;5407;51.234;6.804;2023-07-13T05:52:18;101105.81;;;21.80;51.10
10712;BME280;5407;51.234;6.804;2023-07-13T05:54:45;101110.31;;;22.00;50.35
10712;BME280;5407;51.234;6.804;2023-07-13T05:57:12;101113.63;;;21.85;50.82
10712;BME280;5407;51.234;6.804;2023-07-13T05:59:39;101114.25;;;21.99;50.54
10712;BME280;5407;51.234;6.804;2023-07-13T06:02:08;101109.50;;;21.59;51.73
10712;BME280;5407;51.234;6.804;2023-07-13T06:04:36;101119.91;;;21.85;51.10
10712;BME280;5407;51.234;6.804;2023-07-13T06:07:03;101123.28;;;21.52;52.64
10712;BME280;5407;51.234;6.804;2023-07-13T06:09:31;101124.56;;;21.92;51.43
10712;BME280;5407;51.234;6.804;2023-07-13T06:11:58;101129.84;;;21.14;53.88
10712;BME280;5407;51.234;6.804;2023-07-13T06:14:25;101124.53;;;20.72;55.21
10712;BME280;5407;51.234;6.804;2023-07-13T06:16:52;101133.19;;;20.67;56.41
10712;BME280;5407;51.234;6.804;2023-07-13T06:19:19;101136.19;;;20.97;55.02
10712;BME280;5407;51.234;6.804;2023-07-13T06:21:46;101139.31;;;20.99;55.07
10712;BME280;5407;51.234;6.804;2023-07-13T06:24:13;101132.81;;;21.34;54.07
10712;BME280;5407;51.234;6.804;2023-07-13T06:26:41;101135.41;;;20.97;55.28
10712;BME280;5407;51.234;6.804;2023-07-13T06:29:08;101138.50;;;21.06;55.16
10712;BME280;5407;51.234;6.804;2023-07-13T06:31:35;101147.91;;;21.01;55.49
10712;BME280;5407;51.234;6.804;2023-07-13T06:34:02;101155.22;;;21.83;53.19
10712;BME280;5407;51.234;6.804;2023-07-13T06:36:29;101154.16;;;22.14;52.21
10712;BME280;5407;51.234;6.804;2023-07-13T06:38:56;101150.81;;;22.33;51.48
10712;BME280;5407;51.234;6.804;2023-07-13T06:41:22;101149.25;;;22.32;51.41
10712;BME280;5407;51.234;6.804;2023-07-13T06:43:53;101154.63;;;22.46;51.16
10712;BME280;5407;51.234;6.804;2023-07-13T06:46:20;101152.63;;;21.66;53.29
10712;BME280;5407;51.234;6.804;2023-07-13T06:48:47;101159.78;;;22.00;52.65
10712;BME280;5407;51.234;6.804;2023-07-13T06:51:14;101160.94;;;22.43;51.54
10712;BME280;5407;51.234;6.804;2023-07-13T06:53:41;101163.25;;;22.48;51.65
10712;BME280;5407;51.234;6.804;2023-07-13T06:56:09;101170.72;;;22.47;51.71
10712;BME280;5407;51.234;6.804;2023-07-13T06:58:37;101173.47;;;22.47;51.74
10712;BME280;5407;51.234;6.804;2023-07-13T07:01:05;101170.97;;;21.76;53.46
10712;BME280;5407;51.234;6.804;2023-07-13T07:03:32;101172.75;;;22.00;52.82
10712;BME280;5407;51.234;6.804;2023-07-13T07:06:06;101177.34;;;22.13;52.85
10712;BME280;5407;51.234;6.804;2023-07-13T07:08:37;101186.94;;;22.38;52.09
10712;BME280;5407;51.234;6.804;2023-07-13T07:11:04;101176.72;;;22.35;52.20
10712;BME280;5407;51.234;6.804;2023-07-13T07:13:30;101179.88;;;22.37;52.02
10712;BME280;5407;51.234;6.804;2023-07-13T07:15:57;101179.47;;;22.35;52.14
10712;BME280;5407;51.234;6.804;2023-07-13T07:18:27;101180.50;;;22.52;51.57
10712;BME280;5407;51.234;6.804;2023-07-13T07:20:54;101180.84;;;21.70;54.38
10712;BME280;5407;51.234;6.804;2023-07-13T07:23:21;101182.31;;;21.85;53.55
10712;BME280;5407;51.234;6.804;2023-07-13T07:25:48;101187.38;;;21.86;53.64
10712;BME280;5407;51.234;6.804;2023-07-13T07:28:17;101186.16;;;21.33;55.20
10712;BME280;5407;51.234;6.804;2023-07-13T07:30:45;101182.72;;;22.23;52.92
10712;BME280;5407;51.234;6.804;2023-07-13T07:33:12;101183.88;;;22.29;52.39
10712;BME280;5407;51.234;6.804;2023-07-13T07:35:40;101180.47;;;22.12;52.58
10712;BME280;5407;51.234;6.804;2023-07-13T07:38:07;101186.16;;;22.38;52.14
10712;BME280;5407;51.234;6.804;2023-07-13T07:40:36;101185.75;;;22.36;52.39
10712;BME280;5407;51.234;6.804;2023-07-13T07:43:03;101187.44;;;22.63;51.52
10712;BME280;5407;51.234;6.804;2023-07-13T07:45:30;101179.78;;;21.46;55.12
10712;BME280;5407;51.234;6.804;2023-07-13T07:47:57;101182.03;;;22.16;53.31
10712;BME280;5407;51.234;6.804;2023-07-13T07:50:24;101184.59;;;22.33;52.81
10712;BME280;5407;51.234;6.804;2023-07-13T07:52:53;101186.88;;;22.79;51.64
10712;BME280;5407;51.234;6.804;2023-07-13T07:55:21;101195.91;;;22.79;51.46
10712;BME280;5407;51.234;6.804;2023-07-13T07:57:49;101192.34;;;22.05;53.23
10712;BME280;5407;51.234;6.804;2023-07-13T08:00:16;101184.78;;;22.13;53.80
10712;BME280;5407;51.234;6.804;2023-07-13T08:02:47;101187.25;;;22.81;51.63
10712;BME280;5407;51.234;6.804;2023-07-13T08:05:14;101184.50;;;22.44;52.50
10712;BME280;5407;51.234;6.804;2023-07-13T08:07:41;101196.56;;;22.90;51.45
10712;BME280;5407;51.234;6.804;2023-07-13T08:10:10;101188.59;;;22.66;52.16
10712;BME280;5407;51.234;6.804;2023-07-13T08:12:38;101181.38;;;23.09;50.62
10712;BME280;5407;51.234;6.804;2023-07-13T08:15:09;101195.25;;;23.32;50.46
10712;BME280;5407;51.234;6.804;2023-07-13T08:17:36;101186.09;;;23.12;51.21
10712;BME280;5407;51.234;6.804;2023-07-13T08:20:04;101182.41;;;22.15;53.60
10712;BME280;5407;51.234;6.804;2023-07-13T08:22:31;101185.50;;;22.94;51.85
10712;BME280;5407;51.234;6.804;2023-07-13T08:24:58;101179.69;;;22.55;52.65
10712;BME280;5407;51.234;6.804;2023-07-13T08:27:28;101175.72;;;23.23;51.04
10712;BME280;5407;51.234;6.804;2023-07-13T08:29:55;101174.31;;;22.78;51.81
10712;BME280;5407;51.234;6.804;2023-07-13T08:32:23;101171.47;;;22.85;52.26
10712;BME280;5407;51.234;6.804;2023-07-13T08:34:50;101177.38;;;23.17;51.57
10712;BME280;5407;51.234;6.804;2023-07-13T08:37:17;101176.53;;;23.20;51.34
10712;BME280;5407;51.234;6.804;2023-07-13T08:39:45;101169.47;;;22.55;52.88
10712;BME280;5407;51.234;6.804;2023-07-13T08:42:16;101168.97;;;22.64;52.50
10712;BME280;5407;51.234;6.804;2023-07-13T08:44:54;101171.00;;;23.23;51.17
10712;BME280;5407;51.234;6.804;2023-07-13T08:47:24;101165.69;;;23.06;51.87
10712;BME280;5407;51.234;6.804;2023-07-13T08:49:52;101172.91;;;23.53;50.58
10712;BME280;5407;51.234;6.804;2023-07-13T08:52:28;101167.81;;;23.25;51.07
10712;BME280;5407;51.234;6.804;2023-07-13T08:54:58;101173.81;;;22.86;52.73
10712;BME280;5407;51.234;6.804;2023-07-13T08:57:32;101170.00;;;22.77;53.00
10712;BME280;5407;51.234;6.804;2023-07-13T09:00:01;101173.94;;;22.76;53.07
10712;BME280;5407;51.234;6.804;2023-07-13T09:02:40;101176.41;;;22.67;53.26
10712;BME280;5407;51.234;6.804;2023-07-13T09:05:12;101176.78;;;22.69;53.23
10712;BME280;5407;51.234;6.804;2023-07-13T09:07:56;101166.97;;;22.68;53.12
10712;BME280;5407;51.234;6.804;2023-07-13T09:10:28;101181.13;;;23.00;52.81
10712;BME280;5407;51.234;6.804;2023-07-13T09:13:06;101177.69;;;22.89;52.68
10712;BME280;5407;51.234;6.804;2023-07-13T09:15:41;101177.34;;;22.87;53.02
10712;BME280;5407;51.234;6.804;2023-07-13T09:18:11;101191.28;;;23.33;51.43
10712;BME280;5407;51.234;6.804;2023-07-13T09:20:44;101187.88;;;22.58;53.19
10712;BME280;5407;51.234;6.804;2023-07-13T09:23:15;101183.28;;;22.82;53.24
10712;BME280;5407;51.234;6.804;2023-07-13T09:25:45;101185.16;;;23.22;51.68
10712;BME280;5407;51.234;6.804;2023-07-13T09:28:17;101173.53;;;23.64;50.91
10712;BME280;5407;51.234;6.804;2023-07-13T09:30:51;101180.38;;;23.78;50.44
10712;BME280;5407;51.234;6.804;2023-07-13T09:33:19;101185.63;;;23.70;50.43
10712;BME280;5407;51.234;6.804;2023-07-13T09:35:46;101191.63;;;23.91;49.84
10712;BME280;5407;51.234;6.804;2023-07-13T09:38:15;101193.69;;;23.57;50.19
10712;BME280;5407;51.234;6.804;2023-07-13T09:40:52;101188.03;;;23.15;51.84
10712;BME280;5407;51.234;6.804;2023-07-13T09:43:22;101197.25;;;22.98;52.20
10712;BME280;5407;51.234;6.804;2023-07-13T09:45:50;101198.81;;;22.99;51.76
10712;BME280;5407;51.234;6.804;2023-07-13T09:48:18;101201.16;;;23.00;52.03
10712;BME280;5407;51.234;6.804;2023-07-13T09:50:45;101196.13;;;22.62;52.52
10712;BME280;5407;51.234;6.804;2023-07-13T09:53:13;101198.25;;;23.41;50.88
10712;BME280;5407;51.234;6.804;2023-07-13T09:55:42;101204.81;;;23.76;49.63
10712;BME280;5407;51.234;6.804;2023-07-13T09:58:12;101199.66;;;23.52;50.00
10712;BME280;5407;51.234;6.804;2023-07-13T10:00:41;101195.94;;;23.92;49.01
10712;BME280;5407;51.234;6.804;2023-07-13T10:03:18;101201.75;;;23.71;49.26
10712;BME280;5407;51.234;6.804;2023-07-13T10:05:48;101197.00;;;23.72;49.26
10712;BME280;5407;51.234;6.804;2023-07-13T10:08:22;101196.72;;;24.15;48.12
10712;BME280;5407;51.234;6.804;2023-07-13T10:10:53;101207.50;;;24.06;47.55
10712;BME280;5407;51.234;6.804;2023-07-13T10:13:27;101215.91;;;22.83;50.77
10712;BME280;5407;51.234;6.804;2023-07-13T10:15:56;101215.19;;;23.09;50.75
10712;BME280;5407;51.234;6.804;2023-07-13T10:18:26;101211.31;;;23.37;49.52
10712;BME280;5407;51.234;6.804;2023-07-13T10:21:09;101209.84;;;23.55;49.12
10712;BME280;5407;51.234;6.804;2023-07-13T10:23:37;101206.25;;;23.32;49.07
10712;BME280;5407;51.234;6.804;2023-07-13T10:26:12;101197.09;;;23.94;47.77
10712;BME280;5407;51.234;6.804;2023-07-13T10:28:41;101206.34;;;24.27;46.83
10712;BME280;5407;51.234;6.804;2023-07-13T10:31:12;101204.13;;;24.18;46.15
10712;BME280;5407;51.234;6.804;2023-07-13T10:33:42;101215.84;;;24.68;45.19
10712;BME280;5407;51.234;6.804;2023-07-13T10:36:15;101210.97;;;24.76;45.22
10712;BME280;5407;51.234;6.804;2023-07-13T10:38:46;101213.19;;;24.19;46.14
10712;BME280;5407;51.234;6.804;2023-07-13T10:41:17;101212.41;;;24.18;46.05
10712;BME280;5407;51.234;6.804;2023-07-13T10:43:47;101221.03;;;23.97;46.34
10712;BME280;5407;51.234;6.804;2023-07-13T10:46:19;101216.41;;;23.91;46.88
10712;BME280;5407;51.234;6.804;2023-07-13T10:48:52;101213.97;;;23.96;46.94
10712;BME280;5407;51.234;6.804;2023-07-13T10:51:21;101216.78;;;23.93;47.20
10712;BME280;5407;51.234;6.804;2023-07-13T10:54:12;101213.19;;;23.96;47.21
10712;BME280;5407;51.234;6.804;2023-07-13T10:56:42;101222.97;;;23.18;48.94
10712;BME280;5407;51.234;6.804;2023-07-13T10:59:12;101218.78;;;23.36;48.67
10712;BME280;5407;51.234;6.804;2023-07-13T11:01:50;101219.13;;;24.17;46.81
10712;BME280;5407;51.234;6.804;2023-07-13T11:04:20;101221.56;;;24.77;45.46
10712;BME280;5407;51.234;6.804;2023-07-13T11:06:50;101224.44;;;25.48;43.49
10712;BME280;5407;51.234;6.804;2023-07-13T11:12:06;101213.34;;;24.31;44.42
10712;BME280;5407;51.234;6.804;2023-07-13T11:14:36;101210.63;;;24.93;44.03
10712;BME280;5407;51.234;6.804;2023-07-13T11:17:46;101208.00;;;24.86;44.23
10712;BME280;5407;51.234;6.804;2023-07-13T11:20:39;101212.09;;;24.98;44.13
10712;BME280;5407;51.234;6.804;2023-07-13T11:23:16;101217.59;;;25.36;43.11
10712;BME280;5407;51.234;6.804;2023-07-13T11:25:44;101208.22;;;24.95;43.67
10712;BME280;5407;51.234;6.804;2023-07-13T11:28:22;101203.97;;;24.91;43.88
10712;BME280;5407;51.234;6.804;2023-07-13T11:31:03;101196.34;;;23.90;45.10
10712;BME280;5407;51.234;6.804;2023-07-13T11:33:57;101195.63;;;24.75;44.83
10712;BME280;5407;51.234;6.804;2023-07-13T11:36:30;101200.53;;;24.44;44.60
10712;BME280;5407;51.234;6.804;2023-07-13T11:39:02;101203.09;;;24.09;44.35
10712;BME280;5407;51.234;6.804;2023-07-13T11:41:32;101195.41;;;24.66;42.98
10712;BME280;5407;51.234;6.804;2023-07-13T11:44:12;101200.84;;;25.28;41.84
10712;BME280;5407;51.234;6.804;2023-07-13T11:46:45;101204.28;;;26.15;40.25
10712;BME280;5407;51.234;6.804;2023-07-13T11:49:16;101197.34;;;26.95;39.19
10712;BME280;5407;51.234;6.804;2023-07-13T11:51:44;101199.09;;;27.30;37.68
10712;BME280;5407;51.234;6.804;2023-07-13T11:54:22;101193.31;;;27.37;38.30
10712;BME280;5407;51.234;6.804;2023-07-13T11:56:50;101194.19;;;28.43;36.31
10712;BME280;5407;51.234;6.804;2023-07-13T11:59:17;101182.81;;;28.29;36.36
10712;BME280;5407;51.234;6.804;2023-07-13T12:01:51;101192.13;;;28.22;36.55
10712;BME280;5407;51.234;6.804;2023-07-13T12:04:22;101185.44;;;29.79;34.40
10712;BME280;5407;51.234;6.804;2023-07-13T12:07:03;101181.00;;;26.73;37.44
10712;BME280;5407;51.234;6.804;2023-07-13T12:09:30;101183.66;;;27.67;36.47
10712;BME280;5407;51.234;6.804;2023-07-13T12:11:58;101177.75;;;28.02;36.21
10712;BME280;5407;51.234;6.804;2023-07-13T12:14:26;101180.97;;;27.01;37.32
10712;BME280;5407;51.234;6.804;2023-07-13T12:16:54;101172.41;;;26.10;39.50
10712;BME280;5407;51.234;6.804;2023-07-13T12:19:23;101173.19;;;25.79;40.27
10712;BME280;5407;51.234;6.804;2023-07-13T12:21:52;101175.06;;;25.66;39.67
10712;BME280;5407;51.234;6.804;2023-07-13T12:24:21;101171.56;;;24.75;40.47
10712;BME280;5407;51.234;6.804;2023-07-13T12:26:53;101174.38;;;26.10;38.68
10712;BME280;5407;51.234;6.804;2023-07-13T12:29:21;101171.81;;;26.03;38.57
10712;BME280;5407;51.234;6.804;2023-07-13T12:31:49;101179.28;;;25.38;39.44
10712;BME280;5407;51.234;6.804;2023-07-13T12:34:19;101178.09;;;25.71;39.36
10712;BME280;5407;51.234;6.804;2023-07-13T12:36:48;101180.78;;;27.33;36.62
10712;BME280;5407;51.234;6.804;2023-07-13T12:39:21;101182.91;;;29.23;31.99
10712;BME280;5407;51.234;6.804;2023-07-13T12:41:50;101197.34;;;29.79;30.58
10712;BME280;5407;51.234;6.804;2023-07-13T12:44:18;101178.09;;;29.24;30.44
10712;BME280;5407;51.234;6.804;2023-07-13T12:46:56;101179.84;;;29.70;30.76
10712;BME280;5407;51.234;6.804;2023-07-13T12:49:26;101181.50;;;29.58;30.59
10712;BME280;5407;51.234;6.804;2023-07-13T12:51:58;101188.84;;;29.92;30.48
10712;BME280;5407;51.234;6.804;2023-07-13T12:54:28;101184.94;;;30.64;30.05
10712;BME280;5407;51.234;6.804;2023-07-13T12:56:57;101186.75;;;30.31;30.15
10712;BME280;5407;51.234;6.804;2023-07-13T12:59:30;101192.78;;;29.55;30.60
10712;BME280;5407;51.234;6.804;2023-07-13T13:01:59;101180.78;;;29.76;31.35
10712;BME280;5407;51.234;6.804;2023-07-13T13:04:26;101188.09;;;28.02;33.59
10712;BME280;5407;51.234;6.804;2023-07-13T13:07:01;101178.91;;;29.64;31.46
10712;BME280;5407;51.234;6.804;2023-07-13T13:09:29;101188.78;;;29.56;31.17
10712;BME280;5407;51.234;6.804;2023-07-13T13:11:56;101183.97;;;28.95;32.49
10712;BME280;5407;51.234;6.804;2023-07-13T13:14:23;101186.41;;;28.04;33.78
10712;BME280;5407;51.234;6.804;2023-07-13T13:16:51;101178.25;;;26.28;36.95
10712;BME280;5407;51.234;6.804;2023-07-13T13:19:22;101170.41;;;25.63;37.96
10712;BME280;5407;51.234;6.804;2023-07-13T13:21:50;101185.13;;;25.76;37.70
10712;BME280;5407;51.234;6.804;2023-07-13T13:24:20;101180.69;;;27.36;35.40